aviador You're here:

YSRI Decoded Metar

RICHMOND in AUSTRALIA
Report Time2017-09-23 20:00:00
UTC Time2017-09-23 20:11:58
Flight Rules vfr VFR
Wind320° at 08 kt
W.Decomp.*RWY 28: 7.1 kt HW 3.8 kt RCW
W.Rank320° ranks 36
Current wind is above 320° avg. (5.8)
Visibility9999 m
Phenomena:N/A
Clouds:N/A
Expected CloudBase > 10,000 ft AGL from Temp-Dew spread
CeilingNone
Temp28°C (ISA +13)
Dew Point03°C (20% RH)
Heat Index26.7°C
AAT23.6°C
QNH1000 hPa
Density Alt2,126 ft
Elevation69 ft
Report Wrong Elevation
Raw Report
METAR YSRI 232000Z AUTO 32008KT 9999 // NCD 28/03 Q1000
RF00.0/000.0 PRESENT WEATHER SENSOR US=

Extra information for YSRI:More info

Metar Taf Metar & Taf Last 4 Metars F.Rules Stats Wind Profile Meteogram Temp Stats Airport Information Weather charts Add Link Nearby VenuesMetar ALERT Operation Metar Decoded Social comments